createdAt,value
2022-12-23T00:00:23.089Z,99269.34
2022-12-23T00:02:50.918Z,99267.50
2022-12-23T00:05:18.830Z,99278.44
2022-12-23T00:07:46.542Z,99271.47
2022-12-23T00:10:14.462Z,99269.59
2022-12-23T00:12:59.773Z,99277.16
2022-12-23T00:15:28.833Z,99271.47
2022-12-23T00:17:56.334Z,99260.75
2022-12-23T00:20:23.913Z,99262.41
2022-12-23T00:23:06.370Z,99271.47
2022-12-23T00:25:44.920Z,99269.25
2022-12-23T00:28:15.790Z,99273.09
2022-12-23T00:30:49.386Z,99271.16
2022-12-23T00:33:18.837Z,99270.66
2022-12-23T00:35:47.030Z,99269.88
2022-12-23T00:38:15.142Z,99278.44
2022-12-23T00:41:00.574Z,99280.88
2022-12-23T00:43:28.221Z,99275.22
2022-12-23T00:45:57.344Z,99277.38
2022-12-23T00:48:42.679Z,99276.00
2022-12-23T00:51:10.383Z,99273.56
2022-12-23T00:53:37.927Z,99265.00
2022-12-23T00:56:05.941Z,99265.00
2022-12-23T00:58:33.467Z,99274.88
2022-12-23T01:01:20.297Z,99269.78
2022-12-23T01:04:05.659Z,99279.88
2022-12-23T01:06:33.383Z,99288.16
2022-12-23T01:09:01.053Z,99292.69
2022-12-23T01:11:28.602Z,99294.34
2022-12-23T01:13:56.168Z,99286.31
2022-12-23T01:16:25.042Z,99294.81
2022-12-23T01:18:52.807Z,99296.91
2022-12-23T01:21:20.425Z,99299.13
2022-12-23T01:23:48.158Z,99304.22
2022-12-23T01:26:15.869Z,99301.44
2022-12-23T01:28:43.389Z,99311.91
2022-12-23T01:31:11.880Z,99315.38
2022-12-23T01:33:40.944Z,99320.25
2022-12-23T01:36:09.227Z,99316.78
2022-12-23T01:38:36.769Z,99320.59
2022-12-23T01:41:04.744Z,99332.59
2022-12-23T01:43:45.981Z,99326.44
2022-12-23T01:46:13.519Z,99323.28
2022-12-23T01:48:43.358Z,99323.50
2022-12-23T01:51:13.681Z,99331.53
2022-12-23T01:53:44.269Z,99338.25
2022-12-23T01:56:14.740Z,99336.66
2022-12-23T01:58:44.918Z,99347.13
2022-12-23T02:01:30.380Z,99348.50
2022-12-23T02:04:01.332Z,99349.44
2022-12-23T02:06:53.573Z,99357.25
2022-12-23T02:09:23.356Z,99360.00
2022-12-23T02:12:08.111Z,99357.66
2022-12-23T02:15:08.037Z,99350.69
2022-12-23T02:17:43.860Z,99358.25
2022-12-23T02:20:53.473Z,99371.63
2022-12-23T02:23:39.568Z,99370.72
2022-12-23T02:26:29.349Z,99374.78
2022-12-23T02:29:12.603Z,99365.22
2022-12-23T02:31:45.867Z,99361.50
2022-12-23T02:34:18.429Z,99361.03
2022-12-23T02:36:51.917Z,99359.38
2022-12-23T02:39:21.675Z,99363.44
2022-12-23T02:41:53.760Z,99373.31
2022-12-23T02:44:30.391Z,99377.66
2022-12-23T02:47:01.814Z,99378.69
2022-12-23T02:49:33.189Z,99384.84
2022-12-23T02:52:03.362Z,99378.69
2022-12-23T02:54:32.831Z,99381.84
2022-12-23T02:57:02.414Z,99385.31
2022-12-23T02:59:32.181Z,99396.28
2022-12-23T03:02:02.162Z,99393.59
2022-12-23T03:04:29.813Z,99397.31
2022-12-23T03:07:01.726Z,99402.78
2022-12-23T03:09:39.237Z,99405.13
2022-12-23T03:12:11.898Z,99399.78
2022-12-23T03:14:50.785Z,99412.91
2022-12-23T03:17:30.984Z,99411.13
2022-12-23T03:20:05.138Z,99415.59
2022-12-23T03:22:36.605Z,99425.34
2022-12-23T03:25:07.279Z,99429.31
2022-12-23T03:27:38.340Z,99428.81
2022-12-23T03:30:08.142Z,99431.00
2022-12-23T03:32:40.305Z,99433.69
2022-12-23T03:35:09.257Z,99427.88
2022-12-23T03:37:40.843Z,99426.72
2022-12-23T03:40:11.039Z,99429.63
2022-12-23T03:42:40.113Z,99444.06
2022-12-23T03:45:37.560Z,99445.22
2022-12-23T03:48:04.535Z,99440.91
2022-12-23T03:50:33.360Z,99441.50
2022-12-23T03:53:03.151Z,99450.56
2022-12-23T03:55:34.473Z,99449.19
2022-12-23T03:58:06.413Z,99442.78
2022-12-23T04:00:36.300Z,99441.97
2022-12-23T04:03:12.518Z,99431.16
2022-12-23T04:05:40.941Z,99443.72
2022-12-23T04:08:13.047Z,99435.44
2022-12-23T04:10:40.690Z,99441.31
2022-12-23T04:13:08.999Z,99438.03
2022-12-23T04:15:40.186Z,99438.03
2022-12-23T04:18:09.918Z,99441.78
2022-12-23T04:20:37.616Z,99445.50
2022-12-23T04:23:05.667Z,99443.38
2022-12-23T04:25:33.245Z,99452.47
2022-12-23T04:28:01.076Z,99449.56
2022-12-23T04:30:33.921Z,99453.63
2022-12-23T04:33:02.803Z,99455.25
2022-12-23T04:35:32.074Z,99455.25
2022-12-23T04:37:59.637Z,99448.50
2022-12-23T04:40:27.148Z,99442.59
2022-12-23T04:42:54.885Z,99455.72
2022-12-23T04:45:22.662Z,99447.34
2022-12-23T04:47:50.361Z,99447.59
2022-12-23T04:50:18.200Z,99450.28
2022-12-23T04:52:47.389Z,99447.59
2022-12-23T04:55:14.920Z,99453.19
2022-12-23T04:57:42.718Z,99459.59
2022-12-23T05:00:11.450Z,99465.75
2022-12-23T05:02:39.120Z,99467.03
2022-12-23T05:05:07.290Z,99473.31
2022-12-23T05:07:34.987Z,99472.72
2022-12-23T05:10:04.186Z,99472.72
2022-12-23T05:12:32.691Z,99481.00
2022-12-23T05:15:00.212Z,99489.84
2022-12-23T05:17:28.028Z,99497.88
2022-12-23T05:19:55.714Z,99494.03
2022-12-23T05:22:23.255Z,99489.59
2022-12-23T05:24:50.813Z,99490.06
2022-12-23T05:27:19.716Z,99486.00
2022-12-23T05:29:47.218Z,99477.75
2022-12-23T05:32:14.772Z,99481.47
2022-12-23T05:34:42.329Z,99476.25
2022-12-23T05:37:09.851Z,99477.66
2022-12-23T05:39:37.411Z,99471.22
2022-12-23T05:42:05.381Z,99476.81
2022-12-23T05:44:34.910Z,99467.16
2022-12-23T05:47:03.031Z,99477.75
2022-12-23T05:49:30.746Z,99478.00
2022-12-23T05:51:58.472Z,99467.56
2022-12-23T05:54:26.205Z,99468.44
2022-12-23T05:56:53.920Z,99479.66
2022-12-23T05:59:21.691Z,99484.19
2022-12-23T06:01:50.651Z,99488.34
2022-12-23T06:04:18.388Z,99500.13
2022-12-23T06:06:46.323Z,99504.91
2022-12-23T06:09:14.251Z,99508.97
2022-12-23T06:11:41.800Z,99506.03
2022-12-23T06:14:09.520Z,99514.06
2022-12-23T06:16:37.260Z,99517.19
2022-12-23T06:19:06.489Z,99516.38
2022-12-23T06:21:34.133Z,99525.94
2022-12-23T06:24:01.797Z,99521.16
2022-12-23T06:26:29.472Z,99529.19
2022-12-23T06:28:57.036Z,99530.00
2022-12-23T06:31:24.600Z,99541.16
2022-12-23T06:33:52.226Z,99550.72
2022-12-23T06:36:21.186Z,99553.97
2022-12-23T06:38:48.756Z,99538.63
2022-12-23T06:41:16.473Z,99546.97
2022-12-23T06:43:44.168Z,99551.19
2022-12-23T06:46:13.542Z,99547.56
2022-12-23T06:48:41.275Z,99553.63
2022-12-23T06:51:11.176Z,99556.75
2022-12-23T06:53:40.180Z,99562.91
2022-12-23T06:56:08.360Z,99560.94
2022-12-23T06:58:35.897Z,99559.31
2022-12-23T07:01:03.500Z,99574.19
2022-12-23T07:03:31.184Z,99564.31
2022-12-23T07:05:58.932Z,99569.31
2022-12-23T07:08:26.427Z,99573.50
2022-12-23T07:11:00.160Z,99567.19
2022-12-23T07:13:28.455Z,99570.34
2022-12-23T07:15:56.355Z,99571.59
2022-12-23T07:18:24.224Z,99576.63
2022-12-23T07:20:52.016Z,99579.28
2022-12-23T07:23:19.721Z,99580.66
2022-12-23T07:25:47.404Z,99577.97
2022-12-23T07:28:16.267Z,99585.53
2022-12-23T07:30:43.879Z,99583.69
2022-12-23T07:33:11.589Z,99597.50
2022-12-23T07:35:39.306Z,99599.97
2022-12-23T07:38:07.364Z,99609.84
2022-12-23T07:40:35.123Z,99604.13
2022-12-23T07:43:02.815Z,99612.59
2022-12-23T07:45:31.781Z,99627.47
2022-12-23T07:48:02.077Z,99633.25
2022-12-23T07:50:29.869Z,99642.56
2022-12-23T07:52:58.173Z,99637.66
2022-12-23T07:55:25.685Z,99638.91
2022-12-23T07:57:53.640Z,99628.69
2022-12-23T08:00:22.451Z,99631.22
2022-12-23T08:02:51.719Z,99626.94
2022-12-23T08:05:20.109Z,99629.22
2022-12-23T08:07:50.006Z,99619.50
2022-12-23T08:10:17.868Z,99617.66
2022-12-23T08:12:46.343Z,99627.53
2022-12-23T08:15:14.168Z,99627.06
2022-12-23T08:17:41.769Z,99632.75
2022-12-23T08:20:12.388Z,99638.03
2022-12-23T08:22:40.140Z,99638.59
2022-12-23T08:25:08.440Z,99641.09
2022-12-23T08:27:36.005Z,99635.13
2022-12-23T08:30:03.634Z,99637.78
2022-12-23T08:32:31.207Z,99634.91
2022-12-23T08:34:58.808Z,99634.28
2022-12-23T08:37:27.754Z,99627.34
2022-12-23T08:39:55.322Z,99625.50
2022-12-23T08:42:22.916Z,99627.22
2022-12-23T08:44:50.675Z,99632.22
2022-12-23T08:47:18.237Z,99626.88
2022-12-23T08:49:46.191Z,99624.78
2022-12-23T08:52:14.091Z,99624.94
2022-12-23T08:54:43.065Z,99619.66
2022-12-23T08:57:10.616Z,99624.25
2022-12-23T08:59:38.845Z,99625.84
2022-12-23T09:02:06.661Z,99619.34
2022-12-23T09:04:34.213Z,99613.22
2022-12-23T09:07:01.936Z,99612.72
2022-12-23T09:09:29.607Z,99616.72
2022-12-23T09:11:58.683Z,99627.88
2022-12-23T09:14:26.388Z,99620.41
2022-12-23T09:16:53.962Z,99625.78
2022-12-23T09:19:21.551Z,99630.09
2022-12-23T09:21:49.083Z,99628.81
2022-12-23T09:24:16.793Z,99627.88
2022-12-23T09:26:44.317Z,99630.22
2022-12-23T09:29:13.215Z,99633.91
2022-12-23T09:31:40.968Z,99628.81
2022-12-23T09:34:11.192Z,99626.59
2022-12-23T09:36:38.722Z,99620.22
2022-12-23T09:39:06.535Z,99615.81
2022-12-23T09:41:47.641Z,99603.97
2022-12-23T09:44:36.415Z,99604.41
2022-12-23T09:47:06.918Z,99604.31
2022-12-23T09:49:35.140Z,99597.59
2022-12-23T09:52:05.239Z,99591.88
2022-12-23T09:54:38.809Z,99598.16
2022-12-23T09:57:16.346Z,99608.75
2022-12-23T09:59:55.935Z,99604.88
2022-12-23T10:02:27.356Z,99601.16
2022-12-23T10:05:02.775Z,99602.31
2022-12-23T10:07:35.360Z,99603.50
2022-12-23T10:10:09.390Z,99593.97
2022-12-23T10:12:40.642Z,99603.03
2022-12-23T10:15:19.871Z,99598.16
2022-12-23T10:17:47.872Z,99586.97
2022-12-23T10:20:18.851Z,99579.78
2022-12-23T10:22:47.100Z,99585.94
2022-12-23T10:25:19.239Z,99597.44
2022-12-23T10:27:46.964Z,99588.03
2022-12-23T10:30:51.395Z,99585.81
2022-12-23T10:33:14.530Z,99585.84
2022-12-23T10:35:50.218Z,99583.28
2022-12-23T10:38:29.032Z,99582.44
2022-12-23T10:41:08.900Z,99565.81
2022-12-23T10:43:47.502Z,99557.56
2022-12-23T10:46:23.762Z,99562.53
2022-12-23T10:48:57.408Z,99563.44
2022-12-23T10:51:30.115Z,99565.81
2022-12-23T10:54:01.184Z,99554.50
2022-12-23T10:56:30.803Z,99553.00
2022-12-23T10:59:00.717Z,99547.06
2022-12-23T11:01:31.967Z,99550.94
2022-12-23T11:04:05.878Z,99534.25
2022-12-23T11:06:37.504Z,99533.84
2022-12-23T11:09:08.210Z,99520.09
2022-12-23T11:11:55.864Z,99518.91
2022-12-23T11:14:35.043Z,99517.63
2022-12-23T11:17:05.049Z,99518.47
2022-12-23T11:19:32.936Z,99514.97
2022-12-23T11:22:01.820Z,99515.81
2022-12-23T11:24:35.424Z,99515.31
2022-12-23T11:27:08.239Z,99510.47
2022-12-23T11:29:37.168Z,99508.34
2022-12-23T11:32:16.987Z,99499.25
2022-12-23T11:34:47.253Z,99485.00
2022-12-23T11:37:27.435Z,99479.50
2022-12-23T11:39:55.008Z,99473.38
2022-12-23T11:42:27.433Z,99478.72
2022-12-23T11:44:57.212Z,99469.06
2022-12-23T11:47:31.045Z,99475.69
2022-12-23T11:50:00.387Z,99469.53
2022-12-23T11:52:28.992Z,99471.84
2022-12-23T11:54:58.614Z,99474.41
2022-12-23T11:57:34.727Z,99477.53
2022-12-23T12:00:05.263Z,99470.44
2022-12-23T12:02:37.034Z,99464.16
2022-12-23T12:05:08.123Z,99464.16
2022-12-23T12:07:36.815Z,99461.59
2022-12-23T12:10:05.067Z,99459.53
2022-12-23T12:12:33.801Z,99451.41
2022-12-23T12:15:01.614Z,99447.19
2022-12-23T12:17:37.080Z,99438.59
2022-12-23T12:20:07.531Z,99437.91
2022-12-23T12:22:40.228Z,99435.91
2022-12-23T12:25:17.537Z,99430.94
2022-12-23T12:27:48.506Z,99431.84
2022-12-23T12:30:19.492Z,99442.44
2022-12-23T12:32:54.857Z,99437.91
2022-12-23T12:35:26.954Z,99421.97
2022-12-23T12:37:59.063Z,99413.84
2022-12-23T12:40:31.502Z,99413.94
2022-12-23T12:43:01.049Z,99409.28
2022-12-23T12:45:34.807Z,99398.38
2022-12-23T12:48:18.771Z,99392.56
2022-12-23T12:50:55.367Z,99385.56
2022-12-23T12:53:23.797Z,99385.47
2022-12-23T12:55:55.193Z,99375.81
2022-12-23T12:58:24.272Z,99372.56
2022-12-23T13:00:59.534Z,99371.41
2022-12-23T13:03:44.062Z,99366.44
2022-12-23T13:06:19.885Z,99365.41
2022-12-23T13:08:58.388Z,99355.66
2022-12-23T13:11:31.355Z,99353.53
2022-12-23T13:14:05.324Z,99354.00
2022-12-23T13:16:42.165Z,99343.56
2022-12-23T13:19:21.950Z,99337.97
2022-12-23T13:21:52.284Z,99323.09
2022-12-23T13:24:23.663Z,99327.38
2022-12-23T13:26:59.351Z,99320.31
2022-12-23T13:29:59.732Z,99318.47
2022-12-23T13:32:38.390Z,99311.22
2022-12-23T13:35:18.713Z,99306.47
2022-12-23T13:37:53.231Z,99304.28
2022-12-23T13:40:30.673Z,99305.88
2022-12-23T13:43:00.868Z,99305.31
2022-12-23T13:45:33.304Z,99292.31
2022-12-23T13:48:15.796Z,99283.81
2022-12-23T13:50:52.174Z,99283.34
2022-12-23T13:53:24.971Z,99291.03
2022-12-23T13:55:58.920Z,99296.16
2022-12-23T13:58:28.243Z,99297.75
2022-12-23T14:01:00.096Z,99289.16
2022-12-23T14:03:34.373Z,99288.03
2022-12-23T14:06:21.092Z,99276.88
2022-12-23T14:08:48.818Z,99279.78
2022-12-23T14:11:20.061Z,99274.09
2022-12-23T14:13:55.937Z,99266.66
2022-12-23T14:16:38.492Z,99261.31
2022-12-23T14:19:27.452Z,99264.78
2022-12-23T14:22:05.267Z,99246.88
2022-12-23T14:24:55.849Z,99229.69
2022-12-23T14:27:33.156Z,99224.34
2022-12-23T14:30:10.051Z,99218.53
2022-12-23T14:32:46.994Z,99206.69
2022-12-23T14:35:25.644Z,99224.25
2022-12-23T14:38:24.998Z,99229.69
2022-12-23T14:41:01.669Z,99230.16
2022-12-23T14:43:34.774Z,99235.53
2022-12-23T14:46:04.820Z,99229.34
2022-12-23T14:49:38.340Z,99217.06
2022-12-23T14:52:35.903Z,99223.22
2022-12-23T14:55:40.168Z,99223.69
2022-12-23T14:58:13.642Z,99226.13
2022-12-23T15:00:47.695Z,99209.41
2022-12-23T15:03:17.254Z,99195.81
2022-12-23T15:05:45.214Z,99194.19
2022-12-23T15:08:23.557Z,99200.84
2022-12-23T15:10:52.546Z,99197.47
2022-12-23T15:13:20.490Z,99191.34
2022-12-23T15:16:00.993Z,99193.31
2022-12-23T15:18:29.592Z,99201.94
2022-12-23T15:21:02.043Z,99205.97
2022-12-23T15:23:29.900Z,99204.34
2022-12-23T15:26:01.171Z,99203.63
2022-12-23T15:28:36.547Z,99200.97
2022-12-23T15:31:05.186Z,99205.16
2022-12-23T15:36:30.596Z,99199.72
2022-12-23T15:38:59.616Z,99198.66
2022-12-23T15:41:29.535Z,99200.75
2022-12-23T15:44:01.882Z,99199.47
2022-12-23T15:46:30.829Z,99200.19
2022-12-23T15:48:58.667Z,99196.28
2022-12-23T15:52:05.283Z,99196.84
2022-12-23T15:54:24.402Z,99188.84
2022-12-23T15:56:54.967Z,99166.66
2022-12-23T15:59:26.153Z,99153.53
2022-12-23T16:01:54.861Z,99145.44
2022-12-23T16:04:25.845Z,99140.31
2022-12-23T16:06:54.298Z,99128.25
2022-12-23T16:09:32.760Z,99124.06
2022-12-23T16:12:04.039Z,99127.41
2022-12-23T16:14:38.170Z,99134.16
2022-12-23T16:17:23.883Z,99128.69
2022-12-23T16:19:52.834Z,99131.84
2022-12-23T16:22:28.028Z,99122.44
2022-12-23T16:25:02.577Z,99117.56
2022-12-23T16:27:45.652Z,99128.34
2022-12-23T16:30:17.840Z,99126.25
2022-12-23T16:32:51.121Z,99130.78
2022-12-23T16:35:30.670Z,99123.00
2022-12-23T16:38:00.663Z,99116.53
2022-12-23T16:40:28.394Z,99130.44
2022-12-23T16:42:58.128Z,99118.63
2022-12-23T16:45:25.862Z,99117.91
2022-12-23T16:47:55.138Z,99105.75
2022-12-23T16:50:22.712Z,99111.66
2022-12-23T16:52:50.258Z,99124.75
2022-12-23T16:55:19.659Z,99118.13
2022-12-23T16:57:47.375Z,99124.44
2022-12-23T17:00:19.525Z,99125.00
2022-12-23T17:02:48.298Z,99130.59
2022-12-23T17:05:17.381Z,99117.00
2022-12-23T17:07:45.762Z,99117.00
2022-12-23T17:10:14.431Z,99123.97
2022-12-23T17:12:42.868Z,99126.88
2022-12-23T17:15:17.025Z,99143.22
2022-12-23T17:17:46.262Z,99132.00
2022-12-23T17:20:13.899Z,99122.81
2022-12-23T17:22:41.992Z,99142.41
2022-12-23T17:25:12.453Z,99146.94
2022-12-23T17:27:40.499Z,99140.31
2022-12-23T17:30:15.597Z,99147.41
2022-12-23T17:32:43.841Z,99138.38
2022-12-23T17:35:16.568Z,99134.31
2022-12-23T17:37:44.101Z,99126.53
2022-12-23T17:40:12.828Z,99146.03
2022-12-23T17:42:40.397Z,99120.38
2022-12-23T17:45:21.727Z,99123.63
2022-12-23T17:47:49.550Z,99131.28
2022-12-23T17:50:18.708Z,99139.31
2022-12-23T17:52:46.728Z,99113.66
2022-12-23T17:55:18.130Z,99100.31
2022-12-23T17:57:46.148Z,99119.56
2022-12-23T18:00:20.435Z,99125.00
2022-12-23T18:02:52.927Z,99141.59
2022-12-23T18:05:24.047Z,99141.13
2022-12-23T18:07:52.375Z,99138.38
2022-12-23T18:10:21.907Z,99138.94
2022-12-23T18:12:51.647Z,99139.50
2022-12-23T18:15:21.592Z,99148.09
2022-12-23T18:17:49.983Z,99145.53
2022-12-23T18:20:19.812Z,99149.09
2022-12-23T18:22:50.584Z,99156.31
2022-12-23T18:25:20.745Z,99146.09
2022-12-23T18:27:49.037Z,99149.91
2022-12-23T18:30:17.837Z,99144.56
2022-12-23T18:32:45.698Z,99148.78
2022-12-23T18:35:28.326Z,99155.25
2022-12-23T18:37:58.649Z,99151.53
2022-12-23T18:40:32.520Z,99149.91
2022-12-23T18:43:00.596Z,99154.13
2022-12-23T18:45:31.204Z,99149.34
2022-12-23T18:47:59.282Z,99156.78
2022-12-23T18:50:27.462Z,99157.19
2022-12-23T18:52:55.415Z,99168.50
2022-12-23T18:55:24.479Z,99164.31
2022-12-23T18:57:52.071Z,99168.50
2022-12-23T19:00:21.959Z,99162.69
2022-12-23T19:02:50.310Z,99179.28
2022-12-23T19:05:20.214Z,99178.81
2022-12-23T19:07:48.715Z,99180.34
2022-12-23T19:10:18.832Z,99171.16
2022-12-23T19:12:47.867Z,99172.19
2022-12-23T19:15:15.999Z,99166.94
2022-12-23T19:17:43.551Z,99166.78
2022-12-23T19:20:13.464Z,99178.63
2022-12-23T19:22:41.591Z,99178.16
2022-12-23T19:25:10.359Z,99180.94
2022-12-23T19:27:40.083Z,99180.63
2022-12-23T19:30:13.661Z,99178.06
2022-12-23T19:32:41.454Z,99172.53
2022-12-23T19:35:10.873Z,99159.94
2022-12-23T19:37:38.445Z,99164.78
2022-12-23T19:40:07.209Z,99152.59
2022-12-23T19:42:34.980Z,99154.53
2022-12-23T19:45:02.626Z,99156.16
2022-12-23T19:47:31.605Z,99147.31
2022-12-23T19:49:59.301Z,99155.56
2022-12-23T19:52:26.821Z,99156.94
2022-12-23T19:54:54.834Z,99149.00
2022-12-23T19:57:22.828Z,99138.91
2022-12-23T19:59:50.556Z,99150.91
2022-12-23T20:02:20.107Z,99146.50
2022-12-23T20:04:49.179Z,99146.28
2022-12-23T20:07:16.854Z,99149.91
2022-12-23T20:09:44.370Z,99158.84
2022-12-23T20:12:12.100Z,99157.06
2022-12-23T20:14:39.656Z,99157.34
2022-12-23T20:17:07.197Z,99154.44
2022-12-23T20:19:39.069Z,99164.59
2022-12-23T20:22:12.867Z,99155.97
2022-12-23T20:24:40.399Z,99165.75
2022-12-23T20:27:11.975Z,99171.88
2022-12-23T20:29:40.922Z,99182.66
2022-12-23T20:32:08.609Z,99191.34
2022-12-23T20:34:39.571Z,99197.75
2022-12-23T20:37:08.238Z,99197.59
2022-12-23T20:39:37.142Z,99190.75
2022-12-23T20:42:05.075Z,99205.25
2022-12-23T20:44:35.063Z,99214.56
2022-12-23T20:47:04.108Z,99215.31
2022-12-23T20:49:31.709Z,99225.16
2022-12-23T20:51:59.347Z,99227.03
2022-12-23T20:54:32.549Z,99231.69
2022-12-23T20:57:02.691Z,99238.09
2022-12-23T20:59:30.221Z,99240.72
2022-12-23T21:01:59.475Z,99249.22
2022-12-23T21:04:27.322Z,99248.22
2022-12-23T21:06:55.064Z,99262.50
2022-12-23T21:09:22.589Z,99256.38
2022-12-23T21:11:50.183Z,99266.22
2022-12-23T21:14:19.085Z,99263.59
2022-12-23T21:16:46.945Z,99267.66
2022-12-23T21:19:17.469Z,99266.47
2022-12-23T21:21:45.582Z,99267.28
2022-12-23T21:24:13.486Z,99267.72
2022-12-23T21:26:41.423Z,99269.97
2022-12-23T21:29:10.915Z,99276.16
2022-12-23T21:31:42.016Z,99278.56
2022-12-23T21:34:14.200Z,99285.78
2022-12-23T21:36:42.928Z,99301.66
2022-12-23T21:39:15.765Z,99293.47
2022-12-23T21:41:44.119Z,99304.41
2022-12-23T21:44:13.657Z,99305.03
2022-12-23T21:46:42.867Z,99307.78
2022-12-23T21:49:10.508Z,99305.69
2022-12-23T21:51:40.544Z,99303.50
2022-12-23T21:54:09.279Z,99307.94
2022-12-23T21:56:37.036Z,99309.56
2022-12-23T21:59:06.384Z,99315.91
2022-12-23T22:01:34.048Z,99309.91
2022-12-23T22:04:03.917Z,99312.50
2022-12-23T22:06:33.457Z,99317.94
2022-12-23T22:09:01.016Z,99312.34
2022-12-23T22:11:30.005Z,99318.75
2022-12-23T22:13:58.659Z,99319.16
2022-12-23T22:16:27.990Z,99322.22
2022-12-23T22:18:56.588Z,99328.13
2022-12-23T22:21:26.848Z,99329.69
2022-12-23T22:23:55.546Z,99327.28
2022-12-23T22:26:26.267Z,99329.13
2022-12-23T22:28:54.761Z,99343.78
2022-12-23T22:31:25.556Z,99336.84
2022-12-23T22:33:53.315Z,99346.38
2022-12-23T22:36:21.049Z,99344.34
2022-12-23T22:38:54.144Z,99345.38
2022-12-23T22:41:22.131Z,99348.16
2022-12-23T22:43:49.731Z,99345.91
2022-12-23T22:46:18.560Z,99351.19
2022-12-23T22:48:46.760Z,99367.06
2022-12-23T22:51:15.981Z,99369.19
2022-12-23T22:53:43.759Z,99377.97
2022-12-23T22:56:14.722Z,99381.53
2022-12-23T22:58:42.885Z,99375.53
2022-12-23T23:01:18.747Z,99390.63
2022-12-23T23:03:46.404Z,99390.06
2022-12-23T23:06:13.962Z,99401.66
2022-12-23T23:08:42.842Z,99412.22
2022-12-23T23:11:12.685Z,99416.94
2022-12-23T23:13:40.357Z,99427.50
2022-12-23T23:16:08.343Z,99415.63
2022-12-23T23:18:35.991Z,99429.28
2022-12-23T23:21:03.557Z,99433.00
2022-12-23T23:23:31.053Z,99438.22
2022-12-23T23:25:58.784Z,99445.78
2022-12-23T23:28:27.640Z,99457.25
2022-12-23T23:31:10.054Z,99463.78
2022-12-23T23:33:42.767Z,99456.47
2022-12-23T23:36:10.784Z,99452.97
2022-12-23T23:38:38.318Z,99448.56
2022-12-23T23:41:06.371Z,99455.88
2022-12-23T23:43:35.204Z,99467.03
2022-12-23T23:46:03.041Z,99459.00
2022-12-23T23:48:30.776Z,99450.00
2022-12-23T23:51:04.840Z,99461.59
2022-12-23T23:53:32.365Z,99486.38
2022-12-23T23:56:04.452Z,99487.81
2022-12-23T23:58:32.120Z,99485.97
